Terminal Aerodrome Forecast
Issued by NWS

Home | Current Version | Previous Version | Text Only | Print | Product List | Glossary On
Versions: 1 2 3 4 5 6 7 8 9 10 11 12 13
000
FTUS44 KLZK 310500
TAFPBF
TAF
KPBF 310540Z 3106/0106 03003KT P6SM OVC090
      TEMPO 3110/3114 2SM RA BR OVC040
     FM311400 11007KT 4SM -RA BR OVC025
     FM311700 12007KT P6SM -RA SCT025 OVC040 PROB30 3120/3124 5SM
      -RA BR OVC025=

USA.gov is the U.S. government's official web portal to all federal, state and local government web resources and services.